Omaha, NE (68135)

5:46 PM CST on November 25, 2014 (GMT -0600)
Prairie Point 163rd and Q St | Change Station
CLOSE
Current Station
Personal Weather Station
Location: Omaha, NE
Elevation: 1200 ft
Nearby Weather Stations

Elev 1200 ft 41.21 °N, 96.17 °W | Updated 7 seconds ago

Overcast
Overcast
40.3 °F
Feels Like 40 °F
N
1.0
Wind Variable Wind from ESE
Gusts 8.0 mph

Today
High -- | Low -- °F
--% Chance of Precip.
Yesterday
High -- | Low -- °F
Precip. -- in
7:24 AM 4:58 PM
Waxing Crescent, 14% visible
Pressure 29.95 in
Visibility 10.0 miles
Clouds Scattered Clouds 11000 ft
Windchill 40 °F
Dew Point 29 °F
Humidity 63%
Rainfall 0.00 in
Snow Depth Not available.
UV 0 out of 12
Pollen .10 out of 12
Air Quality Not available.
Flu Activity Not available.
METAR KMLE 252335Z AUTO 14006KT 10SM SCT110 05/M03 A2995 RMK AO2 T00451027

More Conditions Fewer Conditions

Pressure 29.95 in
Visibility 10.0 miles
Clouds Scattered Clouds 11000 ft
Windchill 40 °F
Dew Point 29 °F
Humidity 63%
Rainfall 0.00 in
Snow Depth Not available.
UV 0 out of 12
Pollen .10 out of 12
Air Quality Not available.
Flu Activity Not available.
METAR KMLE 252335Z AUTO 14006KT 10SM SCT110 05/M03 A2995 RMK AO2 T00451027

More Conditions Fewer Conditions

10-Day Weather Forecast

Almanac

Astronomy

Nov. 25, 2014 Rise Set
Actual Time
Civil Twilight
Nautical Twilight
Astronomical Twilight
Moon
Length of Visible Light
Length of Day
Tomorrow will be .
, % of the Moon is Illuminated

Today's Extremes

State Highs State Lows

Community

WunderPhotos

Upload Photos

1,773,624 photos uploaded!

WunderBlogs® & News

Nearby

Air Quality

  Air Quality AQ Index Pollutant
Not available.

Snow Depth

Station Depth Elevation

Earthquake Activity

City Distance Mag. Time & Date
Minimum magnitude displayed is 2.5.

Coastal Water Temperatures

Place Temperature

Nearby Weather Stations